sensor_id;sensor_type;location;lat;lon;timestamp;P1;durP1;ratioP1;P2;durP2;ratioP2
19691;SDS011;42748;50.016;19.890;2023-11-22T00:01:24;39.80;;;19.30;;
19691;SDS011;42748;50.016;19.890;2023-11-22T00:03:53;41.07;;;18.97;;
19691;SDS011;42748;50.016;19.890;2023-11-22T00:06:20;40.93;;;19.40;;
19691;SDS011;42748;50.016;19.890;2023-11-22T00:08:48;40.87;;;19.47;;
19691;SDS011;42748;50.016;19.890;2023-11-22T00:11:15;41.10;;;18.90;;
19691;SDS011;42748;50.016;19.890;2023-11-22T00:13:43;40.17;;;19.97;;
19691;SDS011;42748;50.016;19.890;2023-11-22T00:16:10;43.57;;;20.70;;
19691;SDS011;42748;50.016;19.890;2023-11-22T00:18:38;44.00;;;20.43;;
19691;SDS011;42748;50.016;19.890;2023-11-22T00:21:05;43.37;;;20.77;;
19691;SDS011;42748;50.016;19.890;2023-11-22T00:23:33;48.50;;;22.30;;
19691;SDS011;42748;50.016;19.890;2023-11-22T00:26:00;44.63;;;21.50;;
19691;SDS011;42748;50.016;19.890;2023-11-22T00:28:30;48.57;;;22.43;;
19691;SDS011;42748;50.016;19.890;2023-11-22T00:30:57;43.97;;;21.77;;
19691;SDS011;42748;50.016;19.890;2023-11-22T00:33:25;44.20;;;21.83;;
19691;SDS011;42748;50.016;19.890;2023-11-22T00:35:52;46.00;;;22.17;;
19691;SDS011;42748;50.016;19.890;2023-11-22T00:38:23;47.07;;;21.70;;
19691;SDS011;42748;50.016;19.890;2023-11-22T00:40:51;47.13;;;21.97;;
19691;SDS011;42748;50.016;19.890;2023-11-22T00:43:19;44.57;;;21.23;;
19691;SDS011;42748;50.016;19.890;2023-11-22T00:45:46;41.80;;;19.83;;
19691;SDS011;42748;50.016;19.890;2023-11-22T00:48:14;43.63;;;19.80;;
19691;SDS011;42748;50.016;19.890;2023-11-22T00:50:42;44.93;;;21.27;;
19691;SDS011;42748;50.016;19.890;2023-11-22T00:53:09;41.97;;;20.83;;
19691;SDS011;42748;50.016;19.890;2023-11-22T00:55:36;45.03;;;20.77;;
19691;SDS011;42748;50.016;19.890;2023-11-22T00:58:04;41.27;;;19.50;;
19691;SDS011;42748;50.016;19.890;2023-11-22T01:00:32;45.77;;;21.13;;
19691;SDS011;42748;50.016;19.890;2023-11-22T01:02:59;39.53;;;19.77;;
19691;SDS011;42748;50.016;19.890;2023-11-22T01:05:27;40.50;;;19.27;;
19691;SDS011;42748;50.016;19.890;2023-11-22T01:07:55;42.17;;;18.93;;
19691;SDS011;42748;50.016;19.890;2023-11-22T01:10:23;39.97;;;19.60;;
19691;SDS011;42748;50.016;19.890;2023-11-22T01:12:51;42.90;;;19.33;;
19691;SDS011;42748;50.016;19.890;2023-11-22T01:15:19;43.63;;;20.33;;
19691;SDS011;42748;50.016;19.890;2023-11-22T01:17:47;44.93;;;20.40;;
19691;SDS011;42748;50.016;19.890;2023-11-22T01:20:15;41.87;;;20.47;;
19691;SDS011;42748;50.016;19.890;2023-11-22T01:22:43;44.80;;;20.23;;
19691;SDS011;42748;50.016;19.890;2023-11-22T01:25:10;46.57;;;21.23;;
19691;SDS011;42748;50.016;19.890;2023-11-22T01:27:37;45.67;;;20.93;;
19691;SDS011;42748;50.016;19.890;2023-11-22T01:30:05;44.30;;;20.50;;
19691;SDS011;42748;50.016;19.890;2023-11-22T01:32:34;46.57;;;21.03;;
19691;SDS011;42748;50.016;19.890;2023-11-22T01:35:02;42.37;;;20.20;;
19691;SDS011;42748;50.016;19.890;2023-11-22T01:37:30;45.27;;;20.40;;
19691;SDS011;42748;50.016;19.890;2023-11-22T01:39:58;44.70;;;20.53;;
19691;SDS011;42748;50.016;19.890;2023-11-22T01:42:26;44.60;;;20.43;;
19691;SDS011;42748;50.016;19.890;2023-11-22T01:44:53;47.80;;;21.53;;
19691;SDS011;42748;50.016;19.890;2023-11-22T01:47:21;42.00;;;20.80;;
19691;SDS011;42748;50.016;19.890;2023-11-22T01:49:49;44.67;;;20.73;;
19691;SDS011;42748;50.016;19.890;2023-11-22T01:52:16;41.83;;;19.07;;
19691;SDS011;42748;50.016;19.890;2023-11-22T01:54:44;42.50;;;20.23;;
19691;SDS011;42748;50.016;19.890;2023-11-22T01:57:11;42.13;;;18.77;;
19691;SDS011;42748;50.016;19.890;2023-11-22T01:59:39;41.57;;;19.20;;
19691;SDS011;42748;50.016;19.890;2023-11-22T02:02:07;38.50;;;18.20;;
19691;SDS011;42748;50.016;19.890;2023-11-22T02:04:35;38.63;;;17.13;;
19691;SDS011;42748;50.016;19.890;2023-11-22T02:07:02;39.00;;;18.27;;
19691;SDS011;42748;50.016;19.890;2023-11-22T02:09:30;39.50;;;18.90;;
19691;SDS011;42748;50.016;19.890;2023-11-22T02:11:58;39.53;;;18.00;;
19691;SDS011;42748;50.016;19.890;2023-11-22T02:14:27;41.83;;;19.30;;
19691;SDS011;42748;50.016;19.890;2023-11-22T02:16:54;41.53;;;19.93;;
19691;SDS011;42748;50.016;19.890;2023-11-22T02:19:22;45.40;;;20.03;;
19691;SDS011;42748;50.016;19.890;2023-11-22T02:21:50;42.10;;;20.37;;
19691;SDS011;42748;50.016;19.890;2023-11-22T02:24:18;46.20;;;21.67;;
19691;SDS011;42748;50.016;19.890;2023-11-22T02:26:46;47.53;;;21.47;;
19691;SDS011;42748;50.016;19.890;2023-11-22T02:29:13;42.70;;;20.10;;
19691;SDS011;42748;50.016;19.890;2023-11-22T02:31:42;40.67;;;17.67;;
19691;SDS011;42748;50.016;19.890;2023-11-22T02:34:09;41.73;;;19.67;;
19691;SDS011;42748;50.016;19.890;2023-11-22T02:36:37;38.97;;;18.13;;
19691;SDS011;42748;50.016;19.890;2023-11-22T02:39:04;45.50;;;19.87;;
19691;SDS011;42748;50.016;19.890;2023-11-22T02:41:33;45.63;;;19.83;;
19691;SDS011;42748;50.016;19.890;2023-11-22T02:44:01;45.40;;;20.20;;
19691;SDS011;42748;50.016;19.890;2023-11-22T02:46:29;45.00;;;20.53;;
19691;SDS011;42748;50.016;19.890;2023-11-22T02:48:58;47.67;;;20.17;;
19691;SDS011;42748;50.016;19.890;2023-11-22T02:51:25;52.80;;;22.83;;
19691;SDS011;42748;50.016;19.890;2023-11-22T02:53:53;51.07;;;22.17;;
19691;SDS011;42748;50.016;19.890;2023-11-22T02:56:21;47.67;;;21.63;;
19691;SDS011;42748;50.016;19.890;2023-11-22T02:58:48;53.30;;;23.07;;
19691;SDS011;42748;50.016;19.890;2023-11-22T03:01:16;55.83;;;23.73;;
19691;SDS011;42748;50.016;19.890;2023-11-22T03:03:44;52.47;;;24.00;;
19691;SDS011;42748;50.016;19.890;2023-11-22T03:06:12;54.67;;;23.83;;
19691;SDS011;42748;50.016;19.890;2023-11-22T03:08:40;58.70;;;24.57;;
19691;SDS011;42748;50.016;19.890;2023-11-22T03:11:07;52.03;;;24.07;;
19691;SDS011;42748;50.016;19.890;2023-11-22T03:13:34;55.07;;;23.07;;
19691;SDS011;42748;50.016;19.890;2023-11-22T03:16:02;55.13;;;24.40;;
19691;SDS011;42748;50.016;19.890;2023-11-22T03:18:30;61.97;;;25.40;;
19691;SDS011;42748;50.016;19.890;2023-11-22T03:20:59;57.70;;;24.27;;
19691;SDS011;42748;50.016;19.890;2023-11-22T03:23:27;57.20;;;24.63;;
19691;SDS011;42748;50.016;19.890;2023-11-22T03:25:55;59.00;;;25.53;;
19691;SDS011;42748;50.016;19.890;2023-11-22T03:28:22;60.33;;;26.10;;
19691;SDS011;42748;50.016;19.890;2023-11-22T03:30:50;63.87;;;27.13;;
19691;SDS011;42748;50.016;19.890;2023-11-22T03:33:17;61.30;;;25.03;;
19691;SDS011;42748;50.016;19.890;2023-11-22T03:35:45;58.97;;;26.43;;
19691;SDS011;42748;50.016;19.890;2023-11-22T03:38:12;57.10;;;25.87;;
19691;SDS011;42748;50.016;19.890;2023-11-22T03:40:40;63.30;;;25.77;;
19691;SDS011;42748;50.016;19.890;2023-11-22T03:43:07;64.07;;;26.23;;
19691;SDS011;42748;50.016;19.890;2023-11-22T03:45:36;61.30;;;25.97;;
19691;SDS011;42748;50.016;19.890;2023-11-22T03:48:04;60.77;;;26.57;;
19691;SDS011;42748;50.016;19.890;2023-11-22T03:50:32;61.00;;;26.00;;
19691;SDS011;42748;50.016;19.890;2023-11-22T03:52:59;64.17;;;26.37;;
19691;SDS011;42748;50.016;19.890;2023-11-22T03:55:27;64.30;;;27.13;;
19691;SDS011;42748;50.016;19.890;2023-11-22T03:57:54;65.27;;;26.03;;
19691;SDS011;42748;50.016;19.890;2023-11-22T04:00:22;52.10;;;23.13;;
19691;SDS011;42748;50.016;19.890;2023-11-22T04:02:51;56.40;;;24.67;;
19691;SDS011;42748;50.016;19.890;2023-11-22T04:05:19;55.57;;;23.93;;
19691;SDS011;42748;50.016;19.890;2023-11-22T04:07:46;55.60;;;23.83;;
19691;SDS011;42748;50.016;19.890;2023-11-22T04:10:14;63.77;;;25.23;;
19691;SDS011;42748;50.016;19.890;2023-11-22T04:12:41;55.90;;;24.27;;
19691;SDS011;42748;50.016;19.890;2023-11-22T04:15:09;57.67;;;24.60;;
19691;SDS011;42748;50.016;19.890;2023-11-22T04:17:37;59.27;;;24.63;;
19691;SDS011;42748;50.016;19.890;2023-11-22T04:20:06;56.57;;;23.50;;
19691;SDS011;42748;50.016;19.890;2023-11-22T04:22:36;49.47;;;23.37;;
19691;SDS011;42748;50.016;19.890;2023-11-22T04:25:04;53.90;;;23.63;;
19691;SDS011;42748;50.016;19.890;2023-11-22T04:27:32;57.60;;;24.43;;
19691;SDS011;42748;50.016;19.890;2023-11-22T04:30:00;52.20;;;23.40;;
19691;SDS011;42748;50.016;19.890;2023-11-22T04:32:27;59.60;;;24.00;;
19691;SDS011;42748;50.016;19.890;2023-11-22T04:34:55;56.00;;;23.90;;
19691;SDS011;42748;50.016;19.890;2023-11-22T04:37:23;52.83;;;23.33;;
19691;SDS011;42748;50.016;19.890;2023-11-22T04:39:53;51.10;;;22.23;;
19691;SDS011;42748;50.016;19.890;2023-11-22T04:42:20;56.23;;;23.47;;
19691;SDS011;42748;50.016;19.890;2023-11-22T04:44:49;56.07;;;24.33;;
19691;SDS011;42748;50.016;19.890;2023-11-22T04:47:16;55.07;;;24.03;;
19691;SDS011;42748;50.016;19.890;2023-11-22T04:49:44;50.47;;;21.93;;
19691;SDS011;42748;50.016;19.890;2023-11-22T04:52:12;50.53;;;22.67;;
19691;SDS011;42748;50.016;19.890;2023-11-22T04:54:39;45.43;;;20.83;;
19691;SDS011;42748;50.016;19.890;2023-11-22T04:57:07;45.70;;;19.97;;
19691;SDS011;42748;50.016;19.890;2023-11-22T04:59:34;48.03;;;21.70;;
19691;SDS011;42748;50.016;19.890;2023-11-22T05:02:02;47.60;;;21.13;;
19691;SDS011;42748;50.016;19.890;2023-11-22T05:04:29;46.63;;;20.80;;
19691;SDS011;42748;50.016;19.890;2023-11-22T05:06:57;48.83;;;21.70;;
19691;SDS011;42748;50.016;19.890;2023-11-22T05:09:25;49.47;;;22.33;;
19691;SDS011;42748;50.016;19.890;2023-11-22T05:11:52;50.97;;;23.37;;
19691;SDS011;42748;50.016;19.890;2023-11-22T05:14:20;53.33;;;24.07;;
19691;SDS011;42748;50.016;19.890;2023-11-22T05:16:48;55.63;;;23.27;;
19691;SDS011;42748;50.016;19.890;2023-11-22T05:19:17;55.23;;;22.50;;
19691;SDS011;42748;50.016;19.890;2023-11-22T05:21:44;44.87;;;20.40;;
19691;SDS011;42748;50.016;19.890;2023-11-22T05:24:12;50.47;;;22.47;;
19691;SDS011;42748;50.016;19.890;2023-11-22T05:26:41;49.10;;;22.10;;
19691;SDS011;42748;50.016;19.890;2023-11-22T05:29:09;49.70;;;22.13;;
19691;SDS011;42748;50.016;19.890;2023-11-22T05:31:36;51.67;;;23.07;;
19691;SDS011;42748;50.016;19.890;2023-11-22T05:34:04;56.10;;;24.37;;
19691;SDS011;42748;50.016;19.890;2023-11-22T05:36:32;52.27;;;23.80;;
19691;SDS011;42748;50.016;19.890;2023-11-22T05:38:59;55.23;;;23.63;;
19691;SDS011;42748;50.016;19.890;2023-11-22T05:41:27;55.60;;;23.67;;
19691;SDS011;42748;50.016;19.890;2023-11-22T05:43:54;57.00;;;23.77;;
19691;SDS011;42748;50.016;19.890;2023-11-22T05:46:22;59.90;;;26.87;;
19691;SDS011;42748;50.016;19.890;2023-11-22T05:48:51;52.93;;;23.77;;
19691;SDS011;42748;50.016;19.890;2023-11-22T05:51:19;61.17;;;24.63;;
19691;SDS011;42748;50.016;19.890;2023-11-22T05:53:47;57.73;;;23.80;;
19691;SDS011;42748;50.016;19.890;2023-11-22T05:56:15;57.97;;;24.90;;
19691;SDS011;42748;50.016;19.890;2023-11-22T05:58:43;57.57;;;25.03;;
19691;SDS011;42748;50.016;19.890;2023-11-22T06:01:11;54.90;;;23.97;;
19691;SDS011;42748;50.016;19.890;2023-11-22T06:03:39;56.30;;;24.00;;
19691;SDS011;42748;50.016;19.890;2023-11-22T06:06:07;61.87;;;25.43;;
19691;SDS011;42748;50.016;19.890;2023-11-22T06:08:34;60.00;;;25.30;;
19691;SDS011;42748;50.016;19.890;2023-11-22T06:11:02;55.17;;;24.17;;
19691;SDS011;42748;50.016;19.890;2023-11-22T06:13:30;55.50;;;24.37;;
19691;SDS011;42748;50.016;19.890;2023-11-22T06:15:58;54.33;;;23.97;;
19691;SDS011;42748;50.016;19.890;2023-11-22T06:18:25;56.37;;;25.17;;
19691;SDS011;42748;50.016;19.890;2023-11-22T06:20:56;58.50;;;25.27;;
19691;SDS011;42748;50.016;19.890;2023-11-22T06:23:24;54.47;;;23.30;;
19691;SDS011;42748;50.016;19.890;2023-11-22T06:25:51;60.23;;;24.47;;
19691;SDS011;42748;50.016;19.890;2023-11-22T06:28:19;54.33;;;23.63;;
19691;SDS011;42748;50.016;19.890;2023-11-22T06:30:46;55.63;;;23.47;;
19691;SDS011;42748;50.016;19.890;2023-11-22T06:33:14;54.93;;;22.23;;
19691;SDS011;42748;50.016;19.890;2023-11-22T06:35:41;55.17;;;23.57;;
19691;SDS011;42748;50.016;19.890;2023-11-22T06:38:09;53.53;;;23.53;;
19691;SDS011;42748;50.016;19.890;2023-11-22T06:40:36;49.27;;;21.50;;
19691;SDS011;42748;50.016;19.890;2023-11-22T06:43:04;53.07;;;22.50;;
19691;SDS011;42748;50.016;19.890;2023-11-22T06:45:31;50.07;;;22.07;;
19691;SDS011;42748;50.016;19.890;2023-11-22T06:47:59;47.83;;;20.67;;
19691;SDS011;42748;50.016;19.890;2023-11-22T06:50:26;49.63;;;21.60;;
19691;SDS011;42748;50.016;19.890;2023-11-22T06:52:54;58.70;;;22.97;;
19691;SDS011;42748;50.016;19.890;2023-11-22T06:55:21;49.43;;;20.43;;
19691;SDS011;42748;50.016;19.890;2023-11-22T06:57:49;52.10;;;22.67;;
19691;SDS011;42748;50.016;19.890;2023-11-22T07:00:17;51.13;;;22.43;;
19691;SDS011;42748;50.016;19.890;2023-11-22T07:02:44;51.20;;;22.43;;
19691;SDS011;42748;50.016;19.890;2023-11-22T07:05:12;53.50;;;22.67;;
19691;SDS011;42748;50.016;19.890;2023-11-22T07:07:40;47.93;;;22.00;;
19691;SDS011;42748;50.016;19.890;2023-11-22T07:10:08;53.00;;;23.93;;
19691;SDS011;42748;50.016;19.890;2023-11-22T07:12:38;56.40;;;23.67;;
19691;SDS011;42748;50.016;19.890;2023-11-22T07:15:06;61.50;;;25.30;;
19691;SDS011;42748;50.016;19.890;2023-11-22T07:17:36;56.43;;;24.33;;
19691;SDS011;42748;50.016;19.890;2023-11-22T07:20:06;52.40;;;23.97;;
19691;SDS011;42748;50.016;19.890;2023-11-22T07:22:43;54.37;;;23.90;;
19691;SDS011;42748;50.016;19.890;2023-11-22T07:25:10;63.50;;;25.73;;
19691;SDS011;42748;50.016;19.890;2023-11-22T07:27:45;59.07;;;24.53;;
19691;SDS011;42748;50.016;19.890;2023-11-22T07:30:13;55.70;;;24.10;;
19691;SDS011;42748;50.016;19.890;2023-11-22T07:32:41;55.07;;;23.70;;
19691;SDS011;42748;50.016;19.890;2023-11-22T07:35:09;53.97;;;24.33;;
19691;SDS011;42748;50.016;19.890;2023-11-22T07:37:37;60.53;;;24.07;;
19691;SDS011;42748;50.016;19.890;2023-11-22T07:40:09;52.40;;;22.93;;
19691;SDS011;42748;50.016;19.890;2023-11-22T07:42:40;49.20;;;22.23;;
19691;SDS011;42748;50.016;19.890;2023-11-22T07:45:07;46.80;;;20.90;;
19691;SDS011;42748;50.016;19.890;2023-11-22T07:47:38;48.53;;;22.37;;
19691;SDS011;42748;50.016;19.890;2023-11-22T07:50:10;47.90;;;22.27;;
19691;SDS011;42748;50.016;19.890;2023-11-22T07:52:38;50.57;;;21.73;;
19691;SDS011;42748;50.016;19.890;2023-11-22T07:55:08;47.33;;;20.67;;
19691;SDS011;42748;50.016;19.890;2023-11-22T07:57:39;48.00;;;21.50;;
19691;SDS011;42748;50.016;19.890;2023-11-22T08:00:07;46.47;;;20.50;;
19691;SDS011;42748;50.016;19.890;2023-11-22T08:02:37;47.90;;;20.00;;
19691;SDS011;42748;50.016;19.890;2023-11-22T08:05:10;45.27;;;19.93;;
19691;SDS011;42748;50.016;19.890;2023-11-22T08:07:42;45.00;;;19.40;;
19691;SDS011;42748;50.016;19.890;2023-11-22T08:10:15;48.30;;;20.50;;
19691;SDS011;42748;50.016;19.890;2023-11-22T08:12:46;40.87;;;18.23;;
19691;SDS011;42748;50.016;19.890;2023-11-22T08:15:16;43.73;;;18.67;;
19691;SDS011;42748;50.016;19.890;2023-11-22T08:17:46;42.57;;;19.13;;
19691;SDS011;42748;50.016;19.890;2023-11-22T08:20:14;39.53;;;18.57;;
19691;SDS011;42748;50.016;19.890;2023-11-22T08:22:45;38.47;;;18.07;;
19691;SDS011;42748;50.016;19.890;2023-11-22T08:25:13;41.33;;;18.80;;
19691;SDS011;42748;50.016;19.890;2023-11-22T08:27:42;42.23;;;19.17;;
19691;SDS011;42748;50.016;19.890;2023-11-22T08:30:10;45.07;;;19.63;;
19691;SDS011;42748;50.016;19.890;2023-11-22T08:32:43;43.60;;;19.07;;
19691;SDS011;42748;50.016;19.890;2023-11-22T08:35:14;42.77;;;19.13;;
19691;SDS011;42748;50.016;19.890;2023-11-22T08:37:43;42.07;;;18.17;;
19691;SDS011;42748;50.016;19.890;2023-11-22T08:40:10;40.90;;;18.30;;
19691;SDS011;42748;50.016;19.890;2023-11-22T08:42:41;39.77;;;18.03;;
19691;SDS011;42748;50.016;19.890;2023-11-22T08:45:08;39.93;;;16.17;;
19691;SDS011;42748;50.016;19.890;2023-11-22T08:47:39;39.87;;;17.70;;
19691;SDS011;42748;50.016;19.890;2023-11-22T08:50:07;38.70;;;17.80;;
19691;SDS011;42748;50.016;19.890;2023-11-22T08:52:38;32.07;;;15.00;;
19691;SDS011;42748;50.016;19.890;2023-11-22T08:55:06;34.60;;;16.33;;
19691;SDS011;42748;50.016;19.890;2023-11-22T08:57:37;36.97;;;17.23;;
19691;SDS011;42748;50.016;19.890;2023-11-22T09:00:05;38.70;;;17.90;;
19691;SDS011;42748;50.016;19.890;2023-11-22T09:02:36;37.07;;;17.27;;
19691;SDS011;42748;50.016;19.890;2023-11-22T09:05:05;39.90;;;18.97;;
19691;SDS011;42748;50.016;19.890;2023-11-22T09:07:36;36.70;;;17.77;;
19691;SDS011;42748;50.016;19.890;2023-11-22T09:10:04;37.70;;;16.50;;
19691;SDS011;42748;50.016;19.890;2023-11-22T09:12:37;34.97;;;15.47;;
19691;SDS011;42748;50.016;19.890;2023-11-22T09:15:08;39.40;;;17.07;;
19691;SDS011;42748;50.016;19.890;2023-11-22T09:17:39;41.77;;;17.43;;
19691;SDS011;42748;50.016;19.890;2023-11-22T09:20:10;36.47;;;17.13;;
19691;SDS011;42748;50.016;19.890;2023-11-22T09:22:41;39.00;;;18.00;;
19691;SDS011;42748;50.016;19.890;2023-11-22T09:25:12;44.07;;;19.57;;
19691;SDS011;42748;50.016;19.890;2023-11-22T09:27:39;40.97;;;18.63;;
19691;SDS011;42748;50.016;19.890;2023-11-22T09:30:07;40.87;;;19.13;;
19691;SDS011;42748;50.016;19.890;2023-11-22T09:32:46;38.20;;;18.07;;
19691;SDS011;42748;50.016;19.890;2023-11-22T09:35:14;42.80;;;19.07;;
19691;SDS011;42748;50.016;19.890;2023-11-22T09:37:42;41.10;;;18.37;;
19691;SDS011;42748;50.016;19.890;2023-11-22T09:40:11;38.83;;;18.53;;
19691;SDS011;42748;50.016;19.890;2023-11-22T09:42:40;39.77;;;18.17;;
19691;SDS011;42748;50.016;19.890;2023-11-22T09:45:08;43.07;;;19.13;;
19691;SDS011;42748;50.016;19.890;2023-11-22T09:47:35;41.83;;;19.60;;
19691;SDS011;42748;50.016;19.890;2023-11-22T09:50:04;42.40;;;17.97;;
19691;SDS011;42748;50.016;19.890;2023-11-22T09:52:33;39.50;;;18.03;;
19691;SDS011;42748;50.016;19.890;2023-11-22T09:55:02;37.60;;;16.93;;
19691;SDS011;42748;50.016;19.890;2023-11-22T09:57:30;35.63;;;16.63;;
19691;SDS011;42748;50.016;19.890;2023-11-22T09:59:59;38.37;;;17.20;;
19691;SDS011;42748;50.016;19.890;2023-11-22T10:02:34;39.63;;;17.00;;
19691;SDS011;42748;50.016;19.890;2023-11-22T10:05:02;38.30;;;17.43;;
19691;SDS011;42748;50.016;19.890;2023-11-22T10:07:30;38.03;;;16.90;;
19691;SDS011;42748;50.016;19.890;2023-11-22T10:09:59;32.60;;;15.93;;
19691;SDS011;42748;50.016;19.890;2023-11-22T10:12:31;38.67;;;17.67;;
19691;SDS011;42748;50.016;19.890;2023-11-22T10:15:15;35.70;;;16.03;;
19691;SDS011;42748;50.016;19.890;2023-11-22T10:20:25;40.00;;;16.47;;
19691;SDS011;42748;50.016;19.890;2023-11-22T10:23:02;35.53;;;16.33;;
19691;SDS011;42748;50.016;19.890;2023-11-22T10:25:30;44.13;;;16.40;;
19691;SDS011;42748;50.016;19.890;2023-11-22T10:27:59;40.10;;;17.13;;
19691;SDS011;42748;50.016;19.890;2023-11-22T10:30:27;35.20;;;15.00;;
19691;SDS011;42748;50.016;19.890;2023-11-22T10:32:57;36.40;;;15.23;;
19691;SDS011;42748;50.016;19.890;2023-11-22T10:35:24;35.87;;;16.20;;
19691;SDS011;42748;50.016;19.890;2023-11-22T10:37:52;34.83;;;15.03;;
19691;SDS011;42748;50.016;19.890;2023-11-22T10:40:20;37.30;;;16.87;;
19691;SDS011;42748;50.016;19.890;2023-11-22T10:42:47;34.03;;;15.93;;
19691;SDS011;42748;50.016;19.890;2023-11-22T10:45:18;35.00;;;15.93;;
19691;SDS011;42748;50.016;19.890;2023-11-22T10:47:47;31.37;;;15.87;;
19691;SDS011;42748;50.016;19.890;2023-11-22T10:50:16;33.07;;;16.10;;
19691;SDS011;42748;50.016;19.890;2023-11-22T10:52:44;36.70;;;15.87;;
19691;SDS011;42748;50.016;19.890;2023-11-22T10:55:12;34.97;;;15.93;;
19691;SDS011;42748;50.016;19.890;2023-11-22T10:57:45;36.60;;;17.40;;
19691;SDS011;42748;50.016;19.890;2023-11-22T11:00:14;37.63;;;17.50;;
19691;SDS011;42748;50.016;19.890;2023-11-22T11:02:45;36.80;;;15.90;;
19691;SDS011;42748;50.016;19.890;2023-11-22T11:05:17;35.17;;;15.63;;
19691;SDS011;42748;50.016;19.890;2023-11-22T11:07:49;40.60;;;16.43;;
19691;SDS011;42748;50.016;19.890;2023-11-22T11:10:21;41.37;;;18.73;;
19691;SDS011;42748;50.016;19.890;2023-11-22T11:12:50;42.60;;;17.77;;
19691;SDS011;42748;50.016;19.890;2023-11-22T11:15:20;34.93;;;15.83;;
19691;SDS011;42748;50.016;19.890;2023-11-22T11:17:48;36.87;;;16.50;;
19691;SDS011;42748;50.016;19.890;2023-11-22T11:20:17;37.87;;;17.00;;
19691;SDS011;42748;50.016;19.890;2023-11-22T11:22:47;36.00;;;16.70;;
19691;SDS011;42748;50.016;19.890;2023-11-22T11:25:15;35.43;;;16.20;;
19691;SDS011;42748;50.016;19.890;2023-11-22T11:27:55;36.60;;;17.33;;
19691;SDS011;42748;50.016;19.890;2023-11-22T11:33:00;34.80;;;15.73;;
19691;SDS011;42748;50.016;19.890;2023-11-22T11:35:49;37.13;;;17.43;;
19691;SDS011;42748;50.016;19.890;2023-11-22T11:38:19;35.37;;;16.43;;
19691;SDS011;42748;50.016;19.890;2023-11-22T11:40:48;38.67;;;16.53;;
19691;SDS011;42748;50.016;19.890;2023-11-22T11:43:20;35.37;;;16.37;;
19691;SDS011;42748;50.016;19.890;2023-11-22T11:45:47;36.20;;;16.73;;
19691;SDS011;42748;50.016;19.890;2023-11-22T11:48:16;34.93;;;16.63;;
19691;SDS011;42748;50.016;19.890;2023-11-22T11:50:45;37.70;;;17.70;;
19691;SDS011;42748;50.016;19.890;2023-11-22T11:53:14;36.70;;;16.60;;
19691;SDS011;42748;50.016;19.890;2023-11-22T11:55:45;37.17;;;17.63;;
19691;SDS011;42748;50.016;19.890;2023-11-22T11:58:16;40.57;;;18.93;;
19691;SDS011;42748;50.016;19.890;2023-11-22T12:00:44;37.93;;;18.17;;
19691;SDS011;42748;50.016;19.890;2023-11-22T12:03:11;41.30;;;18.53;;
19691;SDS011;42748;50.016;19.890;2023-11-22T12:05:39;44.03;;;19.70;;
19691;SDS011;42748;50.016;19.890;2023-11-22T12:08:07;47.27;;;20.50;;
19691;SDS011;42748;50.016;19.890;2023-11-22T12:10:35;45.07;;;19.70;;
19691;SDS011;42748;50.016;19.890;2023-11-22T12:13:03;39.70;;;17.97;;
19691;SDS011;42748;50.016;19.890;2023-11-22T12:15:31;40.00;;;18.03;;
19691;SDS011;42748;50.016;19.890;2023-11-22T12:17:59;46.47;;;19.93;;
19691;SDS011;42748;50.016;19.890;2023-11-22T12:20:27;40.40;;;18.07;;
19691;SDS011;42748;50.016;19.890;2023-11-22T12:22:58;39.83;;;18.40;;
19691;SDS011;42748;50.016;19.890;2023-11-22T12:25:32;42.90;;;18.93;;
19691;SDS011;42748;50.016;19.890;2023-11-22T12:27:59;45.73;;;19.10;;
19691;SDS011;42748;50.016;19.890;2023-11-22T12:30:36;48.57;;;21.27;;
19691;SDS011;42748;50.016;19.890;2023-11-22T12:33:06;46.07;;;19.67;;
19691;SDS011;42748;50.016;19.890;2023-11-22T12:35:34;45.07;;;20.00;;
19691;SDS011;42748;50.016;19.890;2023-11-22T12:38:02;43.33;;;19.07;;
19691;SDS011;42748;50.016;19.890;2023-11-22T12:40:30;44.53;;;18.63;;
19691;SDS011;42748;50.016;19.890;2023-11-22T12:42:57;40.40;;;18.60;;
19691;SDS011;42748;50.016;19.890;2023-11-22T12:45:26;37.93;;;16.57;;
19691;SDS011;42748;50.016;19.890;2023-11-22T12:47:55;38.30;;;17.43;;
19691;SDS011;42748;50.016;19.890;2023-11-22T12:50:32;44.73;;;18.03;;
19691;SDS011;42748;50.016;19.890;2023-11-22T12:53:08;40.97;;;18.17;;
19691;SDS011;42748;50.016;19.890;2023-11-22T12:55:45;45.60;;;18.83;;
19691;SDS011;42748;50.016;19.890;2023-11-22T12:58:15;41.77;;;19.27;;
19691;SDS011;42748;50.016;19.890;2023-11-22T13:00:43;40.63;;;18.03;;
19691;SDS011;42748;50.016;19.890;2023-11-22T13:03:11;39.67;;;18.33;;
19691;SDS011;42748;50.016;19.890;2023-11-22T13:05:40;39.43;;;18.03;;
19691;SDS011;42748;50.016;19.890;2023-11-22T13:08:12;43.17;;;18.80;;
19691;SDS011;42748;50.016;19.890;2023-11-22T13:10:40;41.63;;;18.30;;
19691;SDS011;42748;50.016;19.890;2023-11-22T13:13:10;41.37;;;18.00;;
19691;SDS011;42748;50.016;19.890;2023-11-22T13:15:37;43.93;;;18.37;;
19691;SDS011;42748;50.016;19.890;2023-11-22T13:18:06;42.37;;;17.93;;
19691;SDS011;42748;50.016;19.890;2023-11-22T13:20:35;42.27;;;17.87;;
19691;SDS011;42748;50.016;19.890;2023-11-22T13:23:05;36.23;;;17.07;;
19691;SDS011;42748;50.016;19.890;2023-11-22T13:25:34;38.83;;;17.43;;
19691;SDS011;42748;50.016;19.890;2023-11-22T13:28:02;38.50;;;17.50;;
19691;SDS011;42748;50.016;19.890;2023-11-22T13:30:31;42.90;;;17.93;;
19691;SDS011;42748;50.016;19.890;2023-11-22T13:32:59;38.13;;;17.53;;
19691;SDS011;42748;50.016;19.890;2023-11-22T13:35:27;41.30;;;17.50;;
19691;SDS011;42748;50.016;19.890;2023-11-22T13:38:04;42.13;;;18.20;;
19691;SDS011;42748;50.016;19.890;2023-11-22T13:40:37;41.90;;;18.37;;
19691;SDS011;42748;50.016;19.890;2023-11-22T13:43:12;41.90;;;18.57;;
19691;SDS011;42748;50.016;19.890;2023-11-22T13:45:40;44.43;;;19.50;;
19691;SDS011;42748;50.016;19.890;2023-11-22T13:48:08;39.00;;;17.27;;
19691;SDS011;42748;50.016;19.890;2023-11-22T13:50:38;40.43;;;17.30;;
19691;SDS011;42748;50.016;19.890;2023-11-22T13:53:05;34.40;;;15.47;;
19691;SDS011;42748;50.016;19.890;2023-11-22T13:55:36;37.53;;;15.60;;
19691;SDS011;42748;50.016;19.890;2023-11-22T13:58:05;39.37;;;16.50;;
19691;SDS011;42748;50.016;19.890;2023-11-22T14:00:34;35.70;;;16.17;;
19691;SDS011;42748;50.016;19.890;2023-11-22T14:03:02;39.77;;;17.13;;
19691;SDS011;42748;50.016;19.890;2023-11-22T14:05:35;38.23;;;16.13;;
19691;SDS011;42748;50.016;19.890;2023-11-22T14:08:04;42.10;;;16.53;;
19691;SDS011;42748;50.016;19.890;2023-11-22T14:10:35;35.73;;;16.17;;
19691;SDS011;42748;50.016;19.890;2023-11-22T14:13:03;41.53;;;17.30;;
19691;SDS011;42748;50.016;19.890;2023-11-22T14:15:31;43.27;;;18.50;;
19691;SDS011;42748;50.016;19.890;2023-11-22T14:17:59;42.63;;;17.83;;
19691;SDS011;42748;50.016;19.890;2023-11-22T14:20:27;35.17;;;15.97;;
19691;SDS011;42748;50.016;19.890;2023-11-22T14:22:56;37.50;;;15.33;;